Time;durP1;ratioP1;P1;durP2;ratioP2;P2;SDS_P1;SDS_P2;PMS_P1;PMS_P2;Temp;Humidity;BMP_temperature;BMP_pressure;BME280_temperature;BME280_humidity;BME280_pressure;Samples;Min_cycle;Max_cycle;Signal;HPM_P1;HPM_P2
2022/01/07 00:00:18;;;;;;;18.85;6.60;;;3.90;99.90;;;;;;5092956;28;20031;-72
2022/01/07 00:02:46;;;;;;;20.70;7.05;;;3.90;99.90;;;;;;5091494;28;20046;-72
2022/01/07 00:05:13;;;;;;;16.92;6.43;;;3.90;99.90;;;;;;5075686;28;20035;-73
2022/01/07 00:07:39;;;;;;;19.90;7.05;;;3.90;99.90;;;;;;5075920;28;20093;-72
2022/01/07 00:10:07;;;;;;;17.65;5.97;;;3.90;99.90;;;;;;5092981;28;20464;-72
2022/01/07 00:12:32;;;;;;;20.70;6.20;;;3.90;99.90;;;;;;5109470;28;20065;-73
2022/01/07 00:14:58;;;;;;;17.23;5.75;;;3.90;99.90;;;;;;5092779;28;20039;-74
2022/01/07 00:17:23;;;;;;;14.10;6.18;;;3.90;99.90;;;;;;5092318;28;20040;-72
2022/01/07 00:19:49;;;;;;;18.58;5.72;;;3.90;99.90;;;;;;5092844;28;20515;-72
2022/01/07 00:22:14;;;;;;;17.95;6.20;;;3.90;99.90;;;;;;5075822;28;20051;-72
2022/01/07 00:24:40;;;;;;;16.42;6.07;;;3.90;99.90;;;;;;5093013;28;20040;-72
2022/01/07 00:27:07;;;;;;;16.88;5.63;;;3.90;99.90;;;;;;5092753;28;20177;-73
2022/01/07 00:29:32;;;;;;;16.27;5.82;;;3.90;99.90;;;;;;5092713;28;20149;-74
2022/01/07 00:31:58;;;;;;;10.82;5.00;;;4.00;99.90;;;;;;5093508;28;20522;-73
2022/01/07 00:34:24;;;;;;;10.30;5.25;;;3.90;99.90;;;;;;5094885;28;20303;-72
2022/01/07 00:36:49;;;;;;;12.13;5.30;;;4.00;99.90;;;;;;5094141;28;20046;-72
2022/01/07 00:39:15;;;;;;;16.88;5.93;;;3.90;99.90;;;;;;5092673;28;20065;-72
2022/01/07 00:41:40;;;;;;;11.55;4.95;;;4.00;99.90;;;;;;5111184;28;20043;-73
2022/01/07 00:44:06;;;;;;;14.60;5.47;;;4.00;99.90;;;;;;5079623;28;20504;-73
2022/01/07 00:46:32;;;;;;;11.57;4.82;;;4.00;99.90;;;;;;5096345;28;20118;-72
2022/01/07 00:48:57;;;;;;;14.35;5.40;;;4.00;99.90;;;;;;5096446;28;20050;-73
2022/01/07 00:51:23;;;;;;;11.65;5.07;;;4.00;99.90;;;;;;5114292;28;20069;-73
2022/01/07 00:53:49;;;;;;;18.65;5.13;;;4.00;99.90;;;;;;5095630;28;20035;-73
2022/01/07 00:56:14;;;;;;;11.55;4.70;;;4.00;99.90;;;;;;5114592;28;20054;-72
2022/01/07 00:58:40;;;;;;;16.63;5.50;;;4.00;99.90;;;;;;5114239;28;20039;-73
2022/01/07 01:01:05;;;;;;;14.63;4.68;;;3.90;99.90;;;;;;5114193;28;20039;-74
2022/01/07 01:03:31;;;;;;;21.65;5.80;;;3.90;99.90;;;;;;5095544;28;20523;-73
2022/01/07 01:05:59;;;;;;;17.05;5.25;;;3.90;99.90;;;;;;5113566;28;20054;-74
2022/01/07 01:08:28;;;;;;;11.73;4.70;;;3.90;99.90;;;;;;5096043;28;20040;-74
2022/01/07 01:10:55;;;;;;;10.73;4.72;;;3.80;99.90;;;;;;5095777;28;20039;-73
2022/01/07 01:13:21;;;;;;;11.43;4.90;;;3.80;99.90;;;;;;5112393;28;20043;-74
2022/01/07 01:15:47;;;;;;;12.13;4.43;;;3.80;99.90;;;;;;5078440;28;20055;-73
2022/01/07 01:18:13;;;;;;;14.68;4.50;;;3.90;99.90;;;;;;5095736;28;20122;-73
2022/01/07 01:20:39;;;;;;;11.30;4.88;;;3.80;99.90;;;;;;5095681;28;20131;-72
2022/01/07 01:23:05;;;;;;;11.35;5.00;;;3.70;99.90;;;;;;5095221;28;20039;-73
2022/01/07 01:25:31;;;;;;;10.88;4.88;;;3.70;99.90;;;;;;5095829;28;20035;-73
2022/01/07 01:27:57;;;;;;;16.33;5.40;;;3.70;99.90;;;;;;5078717;28;20042;-74
2022/01/07 01:30:27;;;;;;;16.10;5.55;;;3.70;99.90;;;;;;5078679;28;20470;-73
2022/01/07 01:32:53;;;;;;;15.13;5.72;;;3.60;99.90;;;;;;5095136;28;20032;-74
2022/01/07 01:35:19;;;;;;;13.02;5.68;;;3.50;99.90;;;;;;5095233;28;20490;-74
2022/01/07 01:37:46;;;;;;;12.77;5.03;;;3.40;99.90;;;;;;5095291;28;20510;-74
2022/01/07 01:40:12;;;;;;;14.13;5.18;;;3.40;99.90;;;;;;5095514;28;20433;-74
2022/01/07 01:42:38;;;;;;;10.98;5.32;;;3.50;99.90;;;;;;5078018;28;20131;-74
2022/01/07 01:45:07;;;;;;;20.00;5.85;;;3.50;99.90;;;;;;5113373;28;20043;-74
2022/01/07 01:47:32;;;;;;;16.85;5.95;;;3.40;99.90;;;;;;5095614;28;20460;-75
2022/01/07 01:49:58;;;;;;;13.07;5.03;;;3.40;99.90;;;;;;5112289;28;20134;-75
2022/01/07 01:52:23;;;;;;;12.57;5.35;;;3.30;99.90;;;;;;5111698;28;20046;-74
2022/01/07 01:54:49;;;;;;;14.13;6.32;;;3.40;99.90;;;;;;5117133;28;20381;-74
2022/01/07 01:57:15;;;;;;;17.65;6.22;;;3.30;99.90;;;;;;5081212;28;20043;-74
2022/01/07 01:59:40;;;;;;;16.85;7.45;;;3.40;99.90;;;;;;5113323;28;20039;-74
2022/01/07 02:02:06;;;;;;;14.88;6.38;;;3.30;99.90;;;;;;5113001;28;20039;-76
2022/01/07 02:04:32;;;;;;;13.98;6.05;;;3.30;99.90;;;;;;5094891;28;20131;-74
2022/01/07 02:06:57;;;;;;;17.45;6.13;;;3.30;99.90;;;;;;5094516;28;20047;-74
2022/01/07 02:09:31;;;;;;;18.50;5.78;;;3.30;99.90;;;;;;5094664;28;20079;-74
2022/01/07 02:11:57;;;;;;;12.90;6.80;;;3.30;99.90;;;;;;5077724;28;20122;-74
2022/01/07 02:14:22;;;;;;;16.50;6.55;;;3.30;99.90;;;;;;5095115;28;20122;-75
2022/01/07 02:16:48;;;;;;;14.73;6.32;;;3.20;99.90;;;;;;5094318;28;20047;-75
2022/01/07 02:19:14;;;;;;;16.65;6.35;;;3.20;99.90;;;;;;5094562;28;20046;-75
2022/01/07 02:21:39;;;;;;;13.68;7.05;;;3.20;99.90;;;;;;5077633;28;20480;-74
2022/01/07 02:24:06;;;;;;;16.33;6.53;;;3.30;99.90;;;;;;5111071;28;20082;-73
2022/01/07 02:26:35;;;;;;;15.82;6.93;;;3.20;99.90;;;;;;5094254;28;20047;-73
2022/01/07 02:29:03;;;;;;;12.93;6.50;;;3.30;99.90;;;;;;5077550;28;20395;-73
2022/01/07 02:31:28;;;;;;;15.60;7.43;;;3.30;99.90;;;;;;5111259;28;20051;-74
2022/01/07 02:33:54;;;;;;;18.20;7.10;;;3.30;99.90;;;;;;5077041;28;20039;-73
2022/01/07 02:36:19;;;;;;;12.98;6.32;;;3.40;99.90;;;;;;5095058;28;20036;-73
2022/01/07 02:38:45;;;;;;;10.27;6.78;;;3.30;99.90;;;;;;5095098;28;20043;-73
2022/01/07 02:41:11;;;;;;;15.82;7.90;;;3.30;99.90;;;;;;5094259;28;20035;-74
2022/01/07 02:43:36;;;;;;;17.52;7.68;;;3.20;99.90;;;;;;5112213;28;20118;-74
2022/01/07 02:46:03;;;;;;;17.27;7.57;;;3.20;99.90;;;;;;5094112;28;20043;-75
2022/01/07 02:48:28;;;;;;;12.70;7.50;;;3.30;99.90;;;;;;5077234;28;20039;-74
2022/01/07 02:50:54;;;;;;;13.05;7.88;;;3.30;99.90;;;;;;5093874;28;20043;-75
2022/01/07 02:53:20;;;;;;;13.75;7.40;;;3.40;99.90;;;;;;5076708;28;20047;-75
2022/01/07 02:55:45;;;;;;;15.60;7.93;;;3.20;99.90;;;;;;5112319;28;20027;-75
2022/01/07 02:58:11;;;;;;;18.17;7.13;;;3.20;99.90;;;;;;5093665;28;20047;-76
2022/01/07 03:00:37;;;;;;;14.60;7.72;;;3.20;99.90;;;;;;5110891;28;20500;-75
2022/01/07 03:03:05;;;;;;;14.63;7.55;;;3.10;99.90;;;;;;5076459;28;20035;-76
2022/01/07 03:05:30;;;;;;;21.58;8.65;;;3.20;99.90;;;;;;5110622;28;20066;-74
2022/01/07 03:07:56;;;;;;;13.68;8.13;;;3.10;99.90;;;;;;5093563;28;20035;-74
2022/01/07 03:10:26;;;;;;;13.88;8.02;;;3.20;99.90;;;;;;5094252;28;20031;-74
2022/01/07 03:12:53;;;;;;;16.85;8.38;;;3.20;99.90;;;;;;5076273;28;20035;-74
2022/01/07 03:15:18;;;;;;;19.73;9.77;;;3.10;99.90;;;;;;5095327;28;20411;-73
2022/01/07 03:17:44;;;;;;;15.18;8.10;;;3.20;99.90;;;;;;5097769;28;20046;-73
2022/01/07 03:20:14;;;;;;;20.75;9.95;;;3.20;99.90;;;;;;5095316;28;20067;-74
2022/01/07 03:22:41;;;;;;;17.42;8.85;;;3.20;99.90;;;;;;5076233;28;20035;-74
2022/01/07 03:25:07;;;;;;;15.88;8.55;;;3.30;99.90;;;;;;5093377;28;20035;-75
2022/01/07 03:27:33;;;;;;;14.30;8.50;;;3.20;99.90;;;;;;5076464;28;20036;-75
2022/01/07 03:29:59;;;;;;;14.77;8.50;;;3.20;99.90;;;;;;5076583;28;20047;-75
2022/01/07 03:32:24;;;;;;;12.18;7.90;;;3.10;99.90;;;;;;5111093;28;20092;-74
2022/01/07 03:34:54;;;;;;;12.50;7.10;;;3.30;99.90;;;;;;5093118;28;20065;-75
2022/01/07 03:37:20;;;;;;;16.85;8.48;;;3.20;99.90;;;;;;5110380;28;20241;-73
2022/01/07 03:39:45;;;;;;;12.52;8.20;;;3.20;99.90;;;;;;5111578;28;20169;-74
2022/01/07 03:42:11;;;;;;;15.07;7.63;;;3.20;99.90;;;;;;5092919;28;20115;-73
2022/01/07 03:44:37;;;;;;;16.75;8.38;;;3.00;99.90;;;;;;5093169;28;20406;-74
2022/01/07 03:47:03;;;;;;;16.13;7.45;;;3.20;99.90;;;;;;5093055;28;20617;-74
2022/01/07 03:49:29;;;;;;;19.88;8.05;;;3.20;99.90;;;;;;5111527;28;20101;-74
2022/01/07 03:51:54;;;;;;;15.60;8.57;;;3.20;99.90;;;;;;5092813;28;20043;-74
2022/01/07 03:54:20;;;;;;;18.27;8.55;;;3.30;99.90;;;;;;5092897;28;20513;-75
2022/01/07 03:56:46;;;;;;;22.08;10.32;;;3.30;99.90;;;;;;5093044;28;20464;-74
2022/01/07 03:59:11;;;;;;;13.90;8.05;;;3.30;99.90;;;;;;5111279;28;20039;-74
2022/01/07 04:01:37;;;;;;;15.15;8.45;;;3.20;99.90;;;;;;5109988;28;20426;-74
2022/01/07 04:04:02;;;;;;;14.80;8.45;;;3.20;99.90;;;;;;5111283;28;20085;-74
2022/01/07 04:06:28;;;;;;;16.50;8.07;;;3.20;99.90;;;;;;5112573;28;20088;-76
2022/01/07 04:08:54;;;;;;;14.70;7.93;;;3.20;99.90;;;;;;5112881;28;20054;-73
2022/01/07 04:11:19;;;;;;;12.30;7.95;;;3.30;99.90;;;;;;5111292;28;20169;-74
2022/01/07 04:13:45;;;;;;;14.70;7.95;;;3.20;99.90;;;;;;5076031;28;20044;-74
2022/01/07 04:16:11;;;;;;;14.43;9.15;;;3.20;99.90;;;;;;5093645;28;20040;-73
2022/01/07 04:18:38;;;;;;;15.40;8.45;;;3.30;99.90;;;;;;5096666;28;20510;-74
2022/01/07 04:21:03;;;;;;;17.98;9.07;;;3.30;99.90;;;;;;5096919;28;20448;-73
2022/01/07 04:23:30;;;;;;;13.18;8.00;;;3.30;99.90;;;;;;5114612;28;20115;-74
2022/01/07 04:25:56;;;;;;;12.40;7.25;;;3.30;99.90;;;;;;5096873;28;20575;-74
2022/01/07 04:28:21;;;;;;;16.80;8.40;;;3.20;99.90;;;;;;5079698;28;20028;-73
2022/01/07 04:30:47;;;;;;;11.48;7.90;;;3.30;99.90;;;;;;5114764;28;20104;-74
2022/01/07 04:33:20;;;;;;;11.73;7.95;;;3.30;99.90;;;;;;5096074;28;20122;-74
2022/01/07 04:35:46;;;;;;;18.98;9.07;;;3.40;99.90;;;;;;5115098;28;20092;-74
2022/01/07 04:38:12;;;;;;;12.02;7.30;;;3.30;99.90;;;;;;5116443;28;20031;-74
2022/01/07 04:40:38;;;;;;;15.18;7.50;;;3.30;99.90;;;;;;5099534;28;20039;-74
2022/01/07 04:43:06;;;;;;;13.00;6.90;;;3.30;99.90;;;;;;5114632;28;20039;-74
2022/01/07 04:45:33;;;;;;;13.85;7.80;;;3.30;99.90;;;;;;5115063;28;20196;-74
2022/01/07 04:47:59;;;;;;;15.75;8.02;;;3.30;99.90;;;;;;5097143;28;20069;-75
2022/01/07 04:50:25;;;;;;;12.90;7.38;;;3.40;99.90;;;;;;5115117;28;20089;-74
2022/01/07 04:52:51;;;;;;;15.52;7.72;;;3.40;99.90;;;;;;5096359;28;20035;-74
2022/01/07 04:55:25;;;;;;;13.82;8.38;;;3.40;99.90;;;;;;5079760;28;20056;-74
2022/01/07 04:57:51;;;;;;;15.02;8.13;;;3.40;99.90;;;;;;5115721;28;20067;-74
2022/01/07 05:00:19;;;;;;;22.23;8.07;;;3.40;99.90;;;;;;5115918;28;20571;-74
2022/01/07 05:02:46;;;;;;;11.32;7.40;;;3.40;99.90;;;;;;5116816;28;20067;-75
2022/01/07 05:05:12;;;;;;;11.43;7.60;;;3.30;99.90;;;;;;5093053;28;20040;-76
2022/01/07 05:07:37;;;;;;;12.38;7.15;;;3.40;99.90;;;;;;5097470;28;20137;-74
2022/01/07 05:10:05;;;;;;;11.18;7.25;;;3.40;99.90;;;;;;5118319;28;20496;-73
2022/01/07 05:12:32;;;;;;;15.50;7.55;;;3.40;99.90;;;;;;5127914;28;20043;-74
2022/01/07 05:14:57;;;;;;;10.93;6.88;;;3.40;99.90;;;;;;5108552;28;20060;-75
2022/01/07 05:17:23;;;;;;;11.05;6.70;;;3.40;99.90;;;;;;5102592;28;20162;-74
2022/01/07 05:19:48;;;;;;;11.32;6.65;;;3.40;99.90;;;;;;5114041;28;20035;-74
2022/01/07 05:22:14;;;;;;;10.85;7.20;;;3.40;99.90;;;;;;5095697;28;20032;-74
2022/01/07 05:24:40;;;;;;;10.75;6.53;;;3.40;99.90;;;;;;5114207;28;20040;-75
2022/01/07 05:27:05;;;;;;;9.30;6.63;;;3.50;99.90;;;;;;5095493;28;20069;-73
2022/01/07 05:29:34;;;;;;;10.65;6.72;;;3.40;99.90;;;;;;5113648;28;20028;-73
2022/01/07 05:32:04;;;;;;;13.18;6.55;;;3.50;99.90;;;;;;5078264;28;20042;-74
2022/01/07 05:34:30;;;;;;;11.27;5.57;;;3.30;99.90;;;;;;5095532;28;20040;-76
2022/01/07 05:36:56;;;;;;;9.40;6.63;;;3.40;99.90;;;;;;5114280;28;20057;-77
2022/01/07 05:39:22;;;;;;;10.13;5.68;;;3.40;99.90;;;;;;5096982;28;20039;-73
2022/01/07 05:41:48;;;;;;;6.63;5.38;;;3.30;99.90;;;;;;5101495;28;20057;-73
2022/01/07 05:44:13;;;;;;;14.20;6.60;;;3.30;99.90;;;;;;5101717;28;20043;-74
2022/01/07 05:46:39;;;;;;;10.85;6.03;;;3.40;99.90;;;;;;5113586;28;20548;-74
2022/01/07 05:49:04;;;;;;;10.82;5.82;;;3.40;99.90;;;;;;5095127;28;20415;-74
2022/01/07 05:51:30;;;;;;;9.65;6.35;;;3.40;99.90;;;;;;5111827;28;20047;-75
2022/01/07 05:53:56;;;;;;;10.60;5.72;;;3.40;99.90;;;;;;5111933;28;20408;-73
2022/01/07 05:56:21;;;;;;;11.70;6.10;;;3.40;99.90;;;;;;5113383;28;20514;-72
2022/01/07 05:58:47;;;;;;;8.32;5.82;;;3.40;99.90;;;;;;5113247;28;20425;-73
2022/01/07 06:01:12;;;;;;;9.80;5.82;;;3.40;99.90;;;;;;5095217;28;20039;-74
2022/01/07 06:03:39;;;;;;;8.35;5.95;;;3.50;99.90;;;;;;5096497;28;20139;-73
2022/01/07 06:06:05;;;;;;;8.25;6.15;;;3.50;99.90;;;;;;5114191;28;20035;-72
2022/01/07 06:08:31;;;;;;;8.15;6.22;;;3.40;99.90;;;;;;5094940;28;20438;-73
2022/01/07 06:10:56;;;;;;;10.98;6.15;;;3.50;99.90;;;;;;5094602;28;20040;-73
2022/01/07 06:13:22;;;;;;;9.30;5.43;;;3.50;99.90;;;;;;5077323;28;20065;-72
2022/01/07 06:15:47;;;;;;;10.57;5.82;;;3.50;99.90;;;;;;5093922;28;20050;-72
2022/01/07 06:18:13;;;;;;;8.52;5.30;;;3.50;99.90;;;;;;5111650;28;20039;-72
2022/01/07 06:20:38;;;;;;;10.63;6.80;;;3.50;99.90;;;;;;5112827;28;20038;-73
2022/01/07 06:23:04;;;;;;;8.57;5.25;;;3.60;99.90;;;;;;5093937;28;20096;-73
2022/01/07 06:25:29;;;;;;;6.75;5.40;;;3.50;99.90;;;;;;5094436;28;20082;-72
2022/01/07 06:27:55;;;;;;;9.95;5.90;;;3.50;99.90;;;;;;5112606;28;20036;-73
2022/01/07 06:30:21;;;;;;;8.10;5.43;;;3.60;99.90;;;;;;5094149;28;20044;-72
2022/01/07 06:32:46;;;;;;;6.93;5.75;;;3.60;99.90;;;;;;5093857;28;20614;-73
2022/01/07 06:35:12;;;;;;;9.02;5.68;;;3.60;99.90;;;;;;5094102;28;20119;-72
2022/01/07 06:37:38;;;;;;;10.18;5.72;;;3.50;99.90;;;;;;5077289;28;20118;-73
2022/01/07 06:40:06;;;;;;;8.77;5.35;;;3.50;99.90;;;;;;5093738;28;20039;-73
2022/01/07 06:42:32;;;;;;;9.32;6.18;;;3.50;99.90;;;;;;5112022;28;20373;-73
2022/01/07 06:44:58;;;;;;;11.05;6.05;;;3.60;99.90;;;;;;5112265;28;20046;-74
2022/01/07 06:47:24;;;;;;;9.05;6.07;;;3.60;99.90;;;;;;5093948;28;20126;-72
2022/01/07 06:49:50;;;;;;;12.32;6.50;;;3.60;99.90;;;;;;5077069;28;20433;-73
2022/01/07 06:52:15;;;;;;;6.97;5.53;;;3.60;99.90;;;;;;5111930;28;20165;-72
2022/01/07 06:54:41;;;;;;;11.48;6.57;;;3.60;99.90;;;;;;5094138;28;20042;-71
2022/01/07 06:57:08;;;;;;;9.57;6.32;;;3.70;99.90;;;;;;5094466;28;20081;-74
2022/01/07 06:59:33;;;;;;;9.82;5.80;;;3.60;99.90;;;;;;5077793;28;20043;-72
2022/01/07 07:01:59;;;;;;;9.13;5.88;;;3.70;99.90;;;;;;5094248;28;20253;-72
2022/01/07 07:04:26;;;;;;;11.48;6.30;;;3.60;99.90;;;;;;5113001;28;20496;-72
2022/01/07 07:06:51;;;;;;;9.43;6.07;;;3.60;99.90;;;;;;5113208;28;20440;-72
2022/01/07 07:09:18;;;;;;;11.25;7.00;;;3.60;99.90;;;;;;5094502;28;20120;-72
2022/01/07 07:11:44;;;;;;;7.90;6.22;;;3.60;99.90;;;;;;5111726;28;20177;-73
2022/01/07 07:14:13;;;;;;;9.35;5.68;;;3.60;99.90;;;;;;5111801;28;20466;-72
2022/01/07 07:16:39;;;;;;;7.35;6.40;;;3.60;99.90;;;;;;5112945;28;20184;-73
2022/01/07 07:19:05;;;;;;;8.88;6.72;;;3.70;99.90;;;;;;5115295;28;20121;-72
2022/01/07 07:21:30;;;;;;;13.82;6.30;;;3.60;99.90;;;;;;5096958;28;20059;-74
2022/01/07 07:23:56;;;;;;;8.35;6.20;;;3.60;99.90;;;;;;5097019;28;20071;-72
2022/01/07 07:26:21;;;;;;;10.00;6.32;;;3.70;99.90;;;;;;5094600;28;20557;-72
2022/01/07 07:28:47;;;;;;;11.75;6.78;;;3.80;99.90;;;;;;5094344;28;20060;-72
2022/01/07 07:31:16;;;;;;;11.27;7.28;;;3.70;99.90;;;;;;5112754;28;20039;-71
2022/01/07 07:33:56;;;;;;;7.53;6.72;;;3.80;99.90;;;;;;5076113;28;20040;-72
2022/01/07 07:36:31;;;;;;;10.77;7.38;;;3.70;99.90;;;;;;5111596;28;20395;-72
2022/01/07 07:39:02;;;;;;;11.45;7.55;;;3.70;99.90;;;;;;5111489;28;20050;-74
2022/01/07 07:41:29;;;;;;;10.88;8.30;;;3.70;99.90;;;;;;5110106;28;20047;-73
2022/01/07 07:43:59;;;;;;;12.55;7.93;;;3.70;99.90;;;;;;5111247;28;20065;-73
2022/01/07 07:46:30;;;;;;;14.07;8.90;;;3.80;99.90;;;;;;5111286;28;20588;-74
2022/01/07 07:48:57;;;;;;;14.90;8.80;;;3.80;99.90;;;;;;5110052;28;20047;-74
2022/01/07 07:51:23;;;;;;;11.63;9.00;;;3.80;99.90;;;;;;5115454;27;20039;-73
2022/01/07 07:53:49;;;;;;;11.65;8.70;;;3.90;99.90;;;;;;5096400;28;20046;-72
2022/01/07 07:56:16;;;;;;;11.65;8.48;;;3.90;99.90;;;;;;5113129;28;20126;-71
2022/01/07 07:58:43;;;;;;;15.02;8.25;;;3.90;99.90;;;;;;5096342;28;20449;-72
2022/01/07 08:01:09;;;;;;;14.32;9.40;;;3.80;99.90;;;;;;5114528;28;20067;-72
2022/01/07 08:03:35;;;;;;;15.02;9.00;;;3.90;99.90;;;;;;5114377;28;20625;-73
2022/01/07 08:06:00;;;;;;;12.77;8.57;;;3.80;99.90;;;;;;5095861;28;20130;-72
2022/01/07 08:08:27;;;;;;;13.27;9.60;;;3.80;99.90;;;;;;5112945;28;20066;-73
2022/01/07 08:10:56;;;;;;;13.77;9.18;;;3.80;99.90;;;;;;5096105;28;20092;-72
2022/01/07 08:13:28;;;;;;;15.52;10.02;;;3.90;99.90;;;;;;5111302;28;20035;-73
2022/01/07 08:16:02;;;;;;;14.13;9.93;;;3.90;99.90;;;;;;5111713;28;20400;-74
2022/01/07 08:18:36;;;;;;;16.52;10.20;;;3.90;99.90;;;;;;5113332;28;20036;-72
2022/01/07 08:21:06;;;;;;;15.15;10.82;;;4.00;99.90;;;;;;5096380;28;20047;-73
2022/01/07 08:23:33;;;;;;;15.90;10.15;;;4.00;99.90;;;;;;5095729;28;20126;-76
2022/01/07 08:25:59;;;;;;;17.77;10.73;;;4.00;99.90;;;;;;5096604;28;20062;-72
2022/01/07 08:28:28;;;;;;;16.75;11.70;;;4.00;99.90;;;;;;5096516;28;20032;-73
2022/01/07 08:36:23;;;;;;;18.65;11.35;;;4.10;99.90;;;;;;5114812;28;20039;-72
2022/01/07 08:38:50;;;;;;;23.90;12.32;;;4.10;99.90;;;;;;5096296;28;20560;-73
2022/01/07 08:41:16;;;;;;;17.42;12.27;;;4.20;99.90;;;;;;5096221;28;20035;-72
2022/01/07 08:43:42;;;;;;;25.40;13.35;;;4.30;99.90;;;;;;5096618;28;20466;-73
2022/01/07 08:46:08;;;;;;;26.38;13.00;;;4.30;99.90;;;;;;5117488;28;20392;-73
2022/01/07 08:48:35;;;;;;;21.88;12.45;;;4.40;99.90;;;;;;5119665;28;20046;-72
2022/01/07 08:51:02;;;;;;;26.95;12.98;;;4.40;99.90;;;;;;5082918;28;20396;-72
2022/01/07 08:53:27;;;;;;;25.40;14.05;;;4.40;99.90;;;;;;5097571;28;20039;-72
2022/01/07 08:55:53;;;;;;;23.30;13.88;;;4.40;99.90;;;;;;5114628;28;20039;-72
2022/01/07 08:58:19;;;;;;;21.48;13.70;;;4.50;99.90;;;;;;5114432;28;20063;-74
2022/01/07 09:00:44;;;;;;;24.95;13.55;;;4.50;99.90;;;;;;5095848;28;20407;-71
2022/01/07 09:03:10;;;;;;;24.20;13.15;;;4.50;99.90;;;;;;5108629;27;20095;-72
2022/01/07 09:05:35;;;;;;;26.52;14.98;;;4.60;99.90;;;;;;5134935;27;20514;-75
2022/01/07 09:08:01;;;;;;;22.27;13.07;;;4.60;99.90;;;;;;5116259;27;20035;-74
2022/01/07 09:10:27;;;;;;;22.45;14.35;;;4.60;99.90;;;;;;5134915;27;20078;-74
2022/01/07 09:12:53;;;;;;;24.05;13.90;;;4.60;99.90;;;;;;5099092;27;20532;-73
2022/01/07 09:15:19;;;;;;;25.77;15.02;;;4.70;99.90;;;;;;5134625;27;20099;-74
2022/01/07 09:17:45;;;;;;;26.83;15.00;;;4.70;99.90;;;;;;5116064;27;20438;-73
2022/01/07 09:20:11;;;;;;;23.25;14.25;;;4.70;99.90;;;;;;5134516;27;20031;-72
2022/01/07 09:22:38;;;;;;;31.42;14.23;;;4.70;99.90;;;;;;5115714;27;20075;-72
2022/01/07 09:25:04;;;;;;;23.73;14.20;;;4.70;99.90;;;;;;5134384;27;20130;-73
2022/01/07 09:27:31;;;;;;;25.63;14.80;;;4.80;99.90;;;;;;5115204;27;20092;-73
2022/01/07 09:29:57;;;;;;;24.48;15.40;;;4.80;99.90;;;;;;5115937;27;20054;-73
2022/01/07 09:32:22;;;;;;;32.10;15.95;;;4.80;99.90;;;;;;5115468;27;20035;-72
2022/01/07 09:34:48;;;;;;;33.38;15.57;;;4.90;99.90;;;;;;5098726;27;20510;-73
2022/01/07 09:37:13;;;;;;;30.45;15.40;;;4.90;99.90;;;;;;5134327;27;20079;-72
2022/01/07 09:39:39;;;;;;;37.22;15.88;;;4.90;99.90;;;;;;5133983;27;20031;-72
2022/01/07 09:42:05;;;;;;;32.42;15.07;;;4.90;99.90;;;;;;5133877;27;20503;-73
2022/01/07 09:44:35;;;;;;;22.02;15.35;;;5.00;99.90;;;;;;5134279;27;20039;-73
2022/01/07 09:47:01;;;;;;;24.48;15.07;;;5.00;99.90;;;;;;5115625;27;20031;-73
2022/01/07 09:49:33;;;;;;;25.98;15.90;;;5.10;99.90;;;;;;5115592;27;20125;-74
2022/01/07 09:51:59;;;;;;;23.90;15.10;;;5.10;99.90;;;;;;5133767;27;20051;-72
2022/01/07 09:54:24;;;;;;;23.50;15.27;;;5.10;99.90;;;;;;5115429;27;20380;-72
2022/01/07 09:56:51;;;;;;;25.15;15.32;;;5.10;99.90;;;;;;5134069;27;20041;-72
2022/01/07 09:59:17;;;;;;;24.45;15.50;;;5.10;99.90;;;;;;5115303;27;20043;-72
2022/01/07 10:02:04;;;;;;;25.85;14.63;;;5.20;99.90;;;;;;5114993;27;20039;-72
2022/01/07 10:04:36;;;;;;;32.33;15.90;;;5.10;99.90;;;;;;5099571;28;20050;-73
2022/01/07 10:07:29;;;;;;;28.88;14.82;;;5.20;99.90;;;;;;5099092;28;20043;-69
2022/01/07 10:09:57;;;;;;;28.38;15.68;;;5.30;99.90;;;;;;5113495;28;20530;-69
2022/01/07 10:12:24;;;;;;;24.42;14.45;;;5.30;99.90;;;;;;5112629;28;20047;-68
2022/01/07 10:15:12;;;;;;;27.30;14.90;;;5.30;99.90;;;;;;5110340;28;20036;-70
2022/01/07 10:17:38;;;;;;;19.92;13.32;;;5.20;99.90;;;;;;5093869;28;20044;-71
2022/01/07 10:20:04;;;;;;;26.23;14.57;;;5.20;99.90;;;;;;5094399;28;20093;-71
2022/01/07 10:22:53;;;;;;;26.48;15.05;;;5.10;99.90;;;;;;5093910;28;20089;-71
2022/01/07 10:25:24;;;;;;;26.25;14.15;;;5.20;99.90;;;;;;5112666;28;20446;-71
2022/01/07 10:27:50;;;;;;;26.58;13.77;;;5.20;99.90;;;;;;5094270;28;20040;-71
2022/01/07 10:30:25;;;;;;;23.00;12.93;;;5.20;99.90;;;;;;5094561;28;20479;-71
2022/01/07 10:32:51;;;;;;;17.65;11.73;;;5.10;99.90;;;;;;5094075;28;20118;-71
2022/01/07 10:35:19;;;;;;;15.88;10.88;;;5.10;99.90;;;;;;5112204;28;20039;-70
2022/01/07 10:38:02;;;;;;;15.15;9.75;;;5.00;99.90;;;;;;5111276;28;20066;-71
2022/01/07 10:40:40;;;;;;;17.08;9.23;;;5.10;99.90;;;;;;5094001;28;20495;-70
2022/01/07 10:43:18;;;;;;;12.23;8.00;;;5.10;99.90;;;;;;5111906;28;20080;-69
2022/01/07 10:45:47;;;;;;;9.55;7.22;;;5.10;99.90;;;;;;5112401;28;20118;-70
2022/01/07 10:48:14;;;;;;;10.48;6.53;;;5.20;99.90;;;;;;5093834;28;20035;-70
2022/01/07 10:50:42;;;;;;;12.38;6.15;;;5.10;99.90;;;;;;5093757;28;20044;-70
2022/01/07 10:53:23;;;;;;;9.88;5.95;;;5.10;99.90;;;;;;5111838;28;20035;-70
2022/01/07 10:56:02;;;;;;;9.80;7.40;;;5.10;99.90;;;;;;5112185;28;20067;-70
2022/01/07 10:58:28;;;;;;;9.38;7.07;;;5.10;99.90;;;;;;5093632;28;20122;-70
2022/01/07 11:00:54;;;;;;;15.23;6.25;;;5.20;99.90;;;;;;5093753;28;20126;-70
2022/01/07 11:03:20;;;;;;;12.85;6.15;;;5.10;99.90;;;;;;5093313;28;20122;-71
2022/01/07 11:05:46;;;;;;;8.50;5.57;;;5.20;99.90;;;;;;5093612;28;20040;-70
2022/01/07 11:08:14;;;;;;;11.95;6.65;;;5.20;99.90;;;;;;5093859;28;20364;-70
2022/01/07 11:10:41;;;;;;;10.20;6.38;;;5.20;99.90;;;;;;5076809;28;20039;-70
2022/01/07 11:13:08;;;;;;;10.35;6.47;;;5.20;99.90;;;;;;5111438;28;20092;-70
2022/01/07 11:15:35;;;;;;;10.50;7.22;;;5.30;99.90;;;;;;5111585;28;20537;-70
2022/01/07 11:18:00;;;;;;;12.80;8.00;;;5.30;99.90;;;;;;5114514;27;20038;-70
2022/01/07 11:20:26;;;;;;;14.35;8.75;;;5.20;99.90;;;;;;5131811;27;20035;-70
2022/01/07 11:22:52;;;;;;;14.07;8.30;;;5.30;99.90;;;;;;5131777;27;20035;-70
2022/01/07 11:25:18;;;;;;;18.63;10.40;;;5.20;99.90;;;;;;5131464;27;20080;-69
2022/01/07 11:27:49;;;;;;;18.75;10.00;;;5.30;99.90;;;;;;5131506;27;20039;-69
2022/01/07 11:30:22;;;;;;;19.50;11.30;;;5.30;99.90;;;;;;5126215;27;20100;-70
2022/01/07 11:32:48;;;;;;;21.55;11.85;;;5.30;99.90;;;;;;5130964;27;20110;-69
2022/01/07 11:35:17;;;;;;;27.73;12.48;;;5.40;99.90;;;;;;5131381;27;20078;-70
2022/01/07 11:37:48;;;;;;;26.25;14.10;;;5.40;99.90;;;;;;5131214;27;20057;-70
2022/01/07 11:40:29;;;;;;;26.80;14.43;;;5.40;99.90;;;;;;5131362;28;20442;-70
2022/01/07 11:42:59;;;;;;;28.50;13.90;;;5.40;99.90;;;;;;5096098;28;20043;-69
2022/01/07 11:45:33;;;;;;;31.25;14.20;;;5.40;99.90;;;;;;5132018;28;20035;-70
2022/01/07 11:48:11;;;;;;;26.90;14.02;;;5.50;99.90;;;;;;5131871;28;20042;-70
2022/01/07 11:51:10;;;;;;;19.20;11.38;;;5.40;99.90;;;;;;5113732;28;20568;-70
2022/01/07 11:53:35;;;;;;;18.55;8.25;;;5.40;99.90;;;;;;5113046;28;20050;-70
2022/01/07 11:56:03;;;;;;;19.67;8.10;;;5.50;99.90;;;;;;5133625;27;20030;-69
2022/01/07 11:58:45;;;;;;;13.40;4.10;;;5.40;99.90;;;;;;5131139;28;20187;-69
2022/01/07 12:01:35;;;;;;;7.03;3.23;;;5.20;99.90;;;;;;5129467;27;20027;-70
2022/01/07 12:04:23;;;;;;;11.02;4.05;;;5.20;99.90;;;;;;5110448;28;20035;-70
2022/01/07 12:06:50;;;;;;;10.63;2.20;;;5.20;99.90;;;;;;5130304;28;20043;-70
2022/01/07 12:09:21;;;;;;;6.07;1.95;;;5.20;99.90;;;;;;5131472;28;20521;-69
2022/01/07 12:12:14;;;;;;;4.00;2.00;;;5.10;99.90;;;;;;5112536;28;20490;-69
2022/01/07 12:14:43;;;;;;;6.07;1.77;;;5.00;99.90;;;;;;5131128;28;20130;-69
2022/01/07 12:17:19;;;;;;;5.72;2.00;;;5.00;99.90;;;;;;5113440;28;20391;-69
2022/01/07 12:19:48;;;;;;;6.05;1.50;;;4.90;99.90;;;;;;5113161;28;20526;-69
2022/01/07 12:22:16;;;;;;;8.50;1.58;;;4.80;99.90;;;;;;5131163;27;20071;-69
2022/01/07 12:24:43;;;;;;;3.08;1.38;;;4.80;99.90;;;;;;5131665;28;20112;-69
2022/01/07 12:27:23;;;;;;;11.43;1.67;;;4.80;99.90;;;;;;5131580;28;20039;-69
2022/01/07 12:29:58;;;;;;;6.35;1.50;;;4.80;99.90;;;;;;5113345;28;20073;-69
2022/01/07 12:32:37;;;;;;;8.27;1.73;;;4.80;99.90;;;;;;5131033;27;20099;-69
2022/01/07 12:35:05;;;;;;;3.22;1.30;;;4.80;99.90;;;;;;5131980;28;20043;-68
2022/01/07 12:37:31;;;;;;;4.72;1.52;;;4.70;99.90;;;;;;5116701;27;20031;-68
2022/01/07 12:39:59;;;;;;;5.53;1.75;;;4.70;99.90;;;;;;5118746;27;20540;-69
2022/01/07 12:42:27;;;;;;;6.65;1.65;;;4.80;99.90;;;;;;5116661;27;20066;-69
2022/01/07 12:44:57;;;;;;;6.45;1.60;;;4.70;99.90;;;;;;5116909;27;20407;-68
2022/01/07 12:47:28;;;;;;;4.55;1.95;;;4.70;99.90;;;;;;5135324;27;20039;-69
2022/01/07 12:49:56;;;;;;;2.38;1.42;;;4.70;99.90;;;;;;5099318;27;20061;-69
2022/01/07 12:52:25;;;;;;;4.03;1.52;;;4.60;99.90;;;;;;5116228;27;20043;-69